Terminal Aerodrome Forecast
Issued by NWS Lake Charles, LA

Home | Current Version | Previous Version | Text Only | Print | Product List | Glossary On
Versions: 1 2 3 4 5 6 7 8 9 10 11 12 13 14 15 16 17 18
732
FTUS44 KLCH 040549
TAFLCH
TAF
KLCH 040549Z 0406/0506 02007KT 5SM -SHRA BR OVC007
     FM040900 35005KT 2SM -RA BR OVC004
     FM041800 03008KT 2SM -SHRA BR OVC015
     FM050000 05009KT P6SM OVC003=

USA.gov is the U.S. government's official web portal to all federal, state and local government web resources and services.